sensor_id;sensor_type;location;lat;lon;timestamp;pressure;altitude;pressure_sealevel;temperature;humidity
55916;BME280;41826;53.246;-6.670;2023-01-29T00:01:04;102487.84;;;4.97;100.00
55916;BME280;41826;53.246;-6.670;2023-01-29T00:03:30;102482.44;;;5.02;100.00
55916;BME280;41826;53.246;-6.670;2023-01-29T00:05:55;102476.75;;;5.14;100.00
55916;BME280;41826;53.246;-6.670;2023-01-29T00:08:21;102472.63;;;5.09;100.00
55916;BME280;41826;53.246;-6.670;2023-01-29T00:10:46;102482.78;;;4.72;100.00
55916;BME280;41826;53.246;-6.670;2023-01-29T00:13:12;102479.06;;;5.00;100.00
55916;BME280;41826;53.246;-6.670;2023-01-29T00:15:37;102474.47;;;5.27;100.00
55916;BME280;41826;53.246;-6.670;2023-01-29T00:18:02;102466.84;;;5.22;100.00
55916;BME280;41826;53.246;-6.670;2023-01-29T00:20:29;102479.91;;;5.21;100.00
55916;BME280;41826;53.246;-6.670;2023-01-29T00:22:54;102476.00;;;5.31;100.00
55916;BME280;41826;53.246;-6.670;2023-01-29T00:25:19;102478.78;;;5.06;100.00
55916;BME280;41826;53.246;-6.670;2023-01-29T00:27:45;102477.63;;;5.34;100.00
55916;BME280;41826;53.246;-6.670;2023-01-29T00:30:10;102479.34;;;5.35;100.00
55916;BME280;41826;53.246;-6.670;2023-01-29T00:32:38;102495.59;;;4.99;100.00
55916;BME280;41826;53.246;-6.670;2023-01-29T00:35:04;102490.56;;;4.94;100.00
55916;BME280;41826;53.246;-6.670;2023-01-29T00:37:30;102497.84;;;4.86;100.00
55916;BME280;41826;53.246;-6.670;2023-01-29T00:39:56;102501.97;;;5.12;100.00
55916;BME280;41826;53.246;-6.670;2023-01-29T00:42:21;102496.78;;;5.12;100.00
55916;BME280;41826;53.246;-6.670;2023-01-29T00:45:06;102498.88;;;5.25;100.00
55916;BME280;41826;53.246;-6.670;2023-01-29T00:47:31;102495.53;;;5.21;100.00
55916;BME280;41826;53.246;-6.670;2023-01-29T00:50:05;102499.75;;;5.24;100.00
55916;BME280;41826;53.246;-6.670;2023-01-29T00:52:31;102501.13;;;4.91;100.00
55916;BME280;41826;53.246;-6.670;2023-01-29T00:54:58;102490.41;;;4.99;100.00
55916;BME280;41826;53.246;-6.670;2023-01-29T00:57:26;102488.94;;;4.92;100.00
55916;BME280;41826;53.246;-6.670;2023-01-29T00:59:51;102478.41;;;5.36;100.00
55916;BME280;41826;53.246;-6.670;2023-01-29T01:02:18;102477.50;;;5.16;100.00
55916;BME280;41826;53.246;-6.670;2023-01-29T01:05:02;102480.75;;;5.21;100.00
55916;BME280;41826;53.246;-6.670;2023-01-29T01:07:30;102484.22;;;5.02;100.00
55916;BME280;41826;53.246;-6.670;2023-01-29T01:09:55;102483.63;;;5.15;100.00
55916;BME280;41826;53.246;-6.670;2023-01-29T01:12:39;102487.81;;;5.40;100.00
55916;BME280;41826;53.246;-6.670;2023-01-29T01:15:05;102485.97;;;5.21;100.00
55916;BME280;41826;53.246;-6.670;2023-01-29T01:17:30;102483.56;;;5.17;100.00
55916;BME280;41826;53.246;-6.670;2023-01-29T01:19:56;102485.84;;;5.04;100.00
55916;BME280;41826;53.246;-6.670;2023-01-29T01:22:21;102486.06;;;4.98;100.00
55916;BME280;41826;53.246;-6.670;2023-01-29T01:24:46;102467.88;;;5.18;100.00
55916;BME280;41826;53.246;-6.670;2023-01-29T01:27:12;102474.16;;;4.92;100.00
55916;BME280;41826;53.246;-6.670;2023-01-29T01:29:38;102467.34;;;5.10;100.00
55916;BME280;41826;53.246;-6.670;2023-01-29T01:32:04;102466.84;;;5.22;100.00
55916;BME280;41826;53.246;-6.670;2023-01-29T01:34:30;102463.00;;;5.11;100.00
55916;BME280;41826;53.246;-6.670;2023-01-29T01:36:55;102467.69;;;4.81;100.00
55916;BME280;41826;53.246;-6.670;2023-01-29T01:39:21;102460.13;;;4.96;100.00
55916;BME280;41826;53.246;-6.670;2023-01-29T01:41:47;102460.97;;;4.97;100.00
55916;BME280;41826;53.246;-6.670;2023-01-29T01:47:16;102471.59;;;5.13;100.00
55916;BME280;41826;53.246;-6.670;2023-01-29T01:49:43;102474.75;;;4.78;100.00
55916;BME280;41826;53.246;-6.670;2023-01-29T01:52:10;102473.56;;;4.86;100.00
55916;BME280;41826;53.246;-6.670;2023-01-29T01:54:37;102469.81;;;4.93;100.00
55916;BME280;41826;53.246;-6.670;2023-01-29T01:57:07;102468.19;;;5.11;100.00
55916;BME280;41826;53.246;-6.670;2023-01-29T01:59:42;102464.22;;;5.02;100.00
55916;BME280;41826;53.246;-6.670;2023-01-29T02:02:10;102475.22;;;5.09;100.00
55916;BME280;41826;53.246;-6.670;2023-01-29T02:04:54;102472.28;;;5.16;100.00
55916;BME280;41826;53.246;-6.670;2023-01-29T02:07:46;102466.13;;;5.39;100.00
55916;BME280;41826;53.246;-6.670;2023-01-29T02:10:38;102474.13;;;5.55;100.00
55916;BME280;41826;53.246;-6.670;2023-01-29T02:13:05;102480.97;;;5.37;100.00
55916;BME280;41826;53.246;-6.670;2023-01-29T02:15:31;102472.31;;;5.37;100.00
55916;BME280;41826;53.246;-6.670;2023-01-29T02:17:57;102480.69;;;5.03;100.00
55916;BME280;41826;53.246;-6.670;2023-01-29T02:20:25;102475.00;;;4.93;100.00
55916;BME280;41826;53.246;-6.670;2023-01-29T02:37:10;102429.47;;;4.83;100.00
55916;BME280;41826;53.246;-6.670;2023-01-29T02:42:13;102426.34;;;4.95;100.00
55916;BME280;41826;53.246;-6.670;2023-01-29T02:44:46;102417.84;;;4.91;100.00
55916;BME280;41826;53.246;-6.670;2023-01-29T02:47:29;102417.53;;;4.99;100.00
55916;BME280;41826;53.246;-6.670;2023-01-29T02:50:05;102410.03;;;4.91;100.00
55916;BME280;41826;53.246;-6.670;2023-01-29T02:52:39;102393.03;;;5.03;100.00
55916;BME280;41826;53.246;-6.670;2023-01-29T02:57:56;102401.97;;;4.55;100.00
55916;BME280;41826;53.246;-6.670;2023-01-29T03:00:29;102380.94;;;4.61;100.00
55916;BME280;41826;53.246;-6.670;2023-01-29T03:03:19;102374.34;;;4.73;100.00
55916;BME280;41826;53.246;-6.670;2023-01-29T03:06:11;102359.59;;;4.73;100.00
55916;BME280;41826;53.246;-6.670;2023-01-29T03:08:46;102361.03;;;4.81;100.00
55916;BME280;41826;53.246;-6.670;2023-01-29T03:11:16;102363.09;;;4.93;100.00
55916;BME280;41826;53.246;-6.670;2023-01-29T03:16:17;102362.72;;;5.02;100.00
55916;BME280;41826;53.246;-6.670;2023-01-29T03:18:52;102362.75;;;4.82;100.00
55916;BME280;41826;53.246;-6.670;2023-01-29T03:21:23;102371.84;;;4.92;100.00
55916;BME280;41826;53.246;-6.670;2023-01-29T03:24:10;102371.38;;;5.03;100.00
55916;BME280;41826;53.246;-6.670;2023-01-29T03:26:57;102366.50;;;4.95;100.00
55916;BME280;41826;53.246;-6.670;2023-01-29T03:29:45;102372.59;;;4.73;100.00
55916;BME280;41826;53.246;-6.670;2023-01-29T03:32:31;102374.16;;;4.57;100.00
55916;BME280;41826;53.246;-6.670;2023-01-29T03:35:00;102378.44;;;4.58;100.00
55916;BME280;41826;53.246;-6.670;2023-01-29T03:37:39;102372.69;;;4.72;100.00
55916;BME280;41826;53.246;-6.670;2023-01-29T03:40:06;102365.44;;;4.58;100.00
55916;BME280;41826;53.246;-6.670;2023-01-29T03:42:58;102370.63;;;4.58;100.00
55916;BME280;41826;53.246;-6.670;2023-01-29T03:53:53;102353.97;;;4.42;100.00
55916;BME280;41826;53.246;-6.670;2023-01-29T04:01:57;102328.00;;;4.62;100.00
55916;BME280;41826;53.246;-6.670;2023-01-29T04:04:33;102322.94;;;4.59;100.00
55916;BME280;41826;53.246;-6.670;2023-01-29T04:07:05;102317.38;;;4.26;100.00
55916;BME280;41826;53.246;-6.670;2023-01-29T04:09:38;102311.13;;;4.50;100.00
55916;BME280;41826;53.246;-6.670;2023-01-29T04:12:08;102304.78;;;4.57;100.00
55916;BME280;41826;53.246;-6.670;2023-01-29T04:14:35;102301.72;;;4.48;100.00
55916;BME280;41826;53.246;-6.670;2023-01-29T04:17:14;102304.91;;;4.34;100.00
55916;BME280;41826;53.246;-6.670;2023-01-29T04:19:41;102302.78;;;4.44;100.00
55916;BME280;41826;53.246;-6.670;2023-01-29T04:22:30;102296.13;;;4.37;100.00
55916;BME280;41826;53.246;-6.670;2023-01-29T04:24:58;102289.63;;;4.47;100.00
55916;BME280;41826;53.246;-6.670;2023-01-29T04:30:46;102293.00;;;4.28;100.00
55916;BME280;41826;53.246;-6.670;2023-01-29T04:47:28;102284.16;;;4.32;100.00
55916;BME280;41826;53.246;-6.670;2023-01-29T04:50:12;102289.63;;;4.26;100.00
55916;BME280;41826;53.246;-6.670;2023-01-29T04:53:03;102281.00;;;4.46;100.00
55916;BME280;41826;53.246;-6.670;2023-01-29T04:55:37;102278.97;;;4.53;100.00
55916;BME280;41826;53.246;-6.670;2023-01-29T04:58:32;102280.91;;;4.48;100.00
55916;BME280;41826;53.246;-6.670;2023-01-29T05:01:01;102281.31;;;4.39;100.00
55916;BME280;41826;53.246;-6.670;2023-01-29T05:03:30;102288.59;;;4.51;100.00
55916;BME280;41826;53.246;-6.670;2023-01-29T05:05:59;102290.94;;;4.37;100.00
55916;BME280;41826;53.246;-6.670;2023-01-29T05:08:26;102299.44;;;4.61;100.00
55916;BME280;41826;53.246;-6.670;2023-01-29T05:10:54;102293.16;;;4.46;100.00
55916;BME280;41826;53.246;-6.670;2023-01-29T05:13:22;102292.75;;;4.55;100.00
55916;BME280;41826;53.246;-6.670;2023-01-29T05:15:55;102292.28;;;4.66;100.00
55916;BME280;41826;53.246;-6.670;2023-01-29T05:18:22;102294.78;;;4.69;100.00
55916;BME280;41826;53.246;-6.670;2023-01-29T05:20:48;102291.50;;;4.84;100.00
55916;BME280;41826;53.246;-6.670;2023-01-29T05:23:15;102282.91;;;4.82;100.00
55916;BME280;41826;53.246;-6.670;2023-01-29T05:25:42;102282.59;;;4.69;100.00
55916;BME280;41826;53.246;-6.670;2023-01-29T05:28:08;102284.56;;;4.44;100.00
55916;BME280;41826;53.246;-6.670;2023-01-29T05:30:50;102279.03;;;4.51;100.00
55916;BME280;41826;53.246;-6.670;2023-01-29T05:33:24;102271.63;;;4.42;100.00
55916;BME280;41826;53.246;-6.670;2023-01-29T05:35:50;102261.00;;;4.67;100.00
55916;BME280;41826;53.246;-6.670;2023-01-29T05:38:16;102260.38;;;4.62;100.00
55916;BME280;41826;53.246;-6.670;2023-01-29T05:40:42;102259.03;;;4.53;100.00
55916;BME280;41826;53.246;-6.670;2023-01-29T05:43:14;102260.97;;;4.48;100.00
55916;BME280;41826;53.246;-6.670;2023-01-29T05:45:40;102263.91;;;4.61;100.00
55916;BME280;41826;53.246;-6.670;2023-01-29T05:48:05;102262.38;;;4.55;100.00
55916;BME280;41826;53.246;-6.670;2023-01-29T05:50:30;102251.13;;;4.55;100.00
55916;BME280;41826;53.246;-6.670;2023-01-29T05:52:59;102253.22;;;4.47;100.00
55916;BME280;41826;53.246;-6.670;2023-01-29T05:55:26;102256.53;;;4.30;100.00
55916;BME280;41826;53.246;-6.670;2023-01-29T05:57:53;102240.09;;;4.29;100.00
55916;BME280;41826;53.246;-6.670;2023-01-29T06:00:19;102233.34;;;4.46;100.00
55916;BME280;41826;53.246;-6.670;2023-01-29T06:02:44;102232.56;;;4.44;100.00
55916;BME280;41826;53.246;-6.670;2023-01-29T06:05:10;102228.50;;;4.57;100.00
55916;BME280;41826;53.246;-6.670;2023-01-29T06:07:35;102227.28;;;4.45;100.00
55916;BME280;41826;53.246;-6.670;2023-01-29T06:10:02;102218.72;;;4.43;100.00
55916;BME280;41826;53.246;-6.670;2023-01-29T06:12:28;102222.34;;;4.39;100.00
55916;BME280;41826;53.246;-6.670;2023-01-29T06:14:53;102224.34;;;4.53;100.00
55916;BME280;41826;53.246;-6.670;2023-01-29T06:17:19;102221.53;;;4.39;100.00
55916;BME280;41826;53.246;-6.670;2023-01-29T06:19:44;102222.31;;;4.41;100.00
55916;BME280;41826;53.246;-6.670;2023-01-29T06:22:09;102216.84;;;4.26;100.00
55916;BME280;41826;53.246;-6.670;2023-01-29T06:24:35;102205.44;;;4.49;100.00
55916;BME280;41826;53.246;-6.670;2023-01-29T06:27:00;102202.78;;;4.51;100.00
55916;BME280;41826;53.246;-6.670;2023-01-29T06:29:26;102199.38;;;4.69;100.00
55916;BME280;41826;53.246;-6.670;2023-01-29T06:31:51;102203.50;;;4.73;100.00
55916;BME280;41826;53.246;-6.670;2023-01-29T06:34:16;102197.16;;;4.60;100.00
55916;BME280;41826;53.246;-6.670;2023-01-29T06:36:42;102197.25;;;4.59;100.00
55916;BME280;41826;53.246;-6.670;2023-01-29T06:39:07;102197.16;;;4.60;100.00
55916;BME280;41826;53.246;-6.670;2023-01-29T06:41:33;102202.03;;;4.68;100.00
55916;BME280;41826;53.246;-6.670;2023-01-29T06:43:59;102188.31;;;4.64;100.00
55916;BME280;41826;53.246;-6.670;2023-01-29T06:46:24;102185.22;;;4.56;100.00
55916;BME280;41826;53.246;-6.670;2023-01-29T06:48:50;102193.91;;;4.55;100.00
55916;BME280;41826;53.246;-6.670;2023-01-29T06:51:16;102195.19;;;4.65;100.00
55916;BME280;41826;53.246;-6.670;2023-01-29T06:53:41;102183.28;;;4.80;100.00
55916;BME280;41826;53.246;-6.670;2023-01-29T06:56:07;102195.06;;;4.68;100.00
55916;BME280;41826;53.246;-6.670;2023-01-29T06:58:36;102188.03;;;4.70;100.00
55916;BME280;41826;53.246;-6.670;2023-01-29T07:01:06;102191.28;;;4.75;100.00
55916;BME280;41826;53.246;-6.670;2023-01-29T07:03:32;102190.28;;;4.59;100.00
55916;BME280;41826;53.246;-6.670;2023-01-29T07:05:58;102190.50;;;4.73;100.00
55916;BME280;41826;53.246;-6.670;2023-01-29T07:08:23;102178.56;;;4.88;100.00
55916;BME280;41826;53.246;-6.670;2023-01-29T07:10:49;102181.00;;;4.72;100.00
55916;BME280;41826;53.246;-6.670;2023-01-29T07:13:14;102171.25;;;4.77;100.00
55916;BME280;41826;53.246;-6.670;2023-01-29T07:15:40;102166.38;;;4.51;100.00
55916;BME280;41826;53.246;-6.670;2023-01-29T07:18:07;102149.94;;;4.69;100.00
55916;BME280;41826;53.246;-6.670;2023-01-29T07:20:38;102147.88;;;4.76;100.00
55916;BME280;41826;53.246;-6.670;2023-01-29T07:23:04;102140.22;;;4.73;100.00
55916;BME280;41826;53.246;-6.670;2023-01-29T07:25:29;102144.19;;;4.82;100.00
55916;BME280;41826;53.246;-6.670;2023-01-29T07:27:55;102145.22;;;4.77;100.00
55916;BME280;41826;53.246;-6.670;2023-01-29T07:30:21;102135.72;;;4.95;100.00
55916;BME280;41826;53.246;-6.670;2023-01-29T07:32:46;102138.41;;;4.94;100.00
55916;BME280;41826;53.246;-6.670;2023-01-29T07:35:11;102141.00;;;4.75;100.00
55916;BME280;41826;53.246;-6.670;2023-01-29T07:37:37;102135.41;;;4.84;100.00
55916;BME280;41826;53.246;-6.670;2023-01-29T07:40:03;102131.44;;;4.75;100.00
55916;BME280;41826;53.246;-6.670;2023-01-29T07:42:34;102128.06;;;4.73;100.00
55916;BME280;41826;53.246;-6.670;2023-01-29T07:44:59;102120.91;;;4.78;100.00
55916;BME280;41826;53.246;-6.670;2023-01-29T07:47:24;102116.69;;;4.95;100.00
55916;BME280;41826;53.246;-6.670;2023-01-29T07:49:50;102123.16;;;4.67;100.00
55916;BME280;41826;53.246;-6.670;2023-01-29T07:52:15;102105.22;;;4.80;100.00
55916;BME280;41826;53.246;-6.670;2023-01-29T07:54:40;102117.53;;;4.76;100.00
55916;BME280;41826;53.246;-6.670;2023-01-29T07:57:06;102107.25;;;4.73;100.00
55916;BME280;41826;53.246;-6.670;2023-01-29T07:59:31;102104.59;;;4.56;100.00
55916;BME280;41826;53.246;-6.670;2023-01-29T08:01:56;102095.53;;;4.65;100.00
55916;BME280;41826;53.246;-6.670;2023-01-29T08:04:22;102087.22;;;4.75;100.00
55916;BME280;41826;53.246;-6.670;2023-01-29T08:06:47;102082.94;;;4.74;100.00
55916;BME280;41826;53.246;-6.670;2023-01-29T08:09:13;102080.19;;;4.77;100.00
55916;BME280;41826;53.246;-6.670;2023-01-29T08:11:38;102082.94;;;4.74;100.00
55916;BME280;41826;53.246;-6.670;2023-01-29T08:14:04;102077.66;;;4.76;100.00
55916;BME280;41826;53.246;-6.670;2023-01-29T08:16:29;102078.78;;;4.89;100.00
55916;BME280;41826;53.246;-6.670;2023-01-29T08:18:55;102078.66;;;5.10;100.00
55916;BME280;41826;53.246;-6.670;2023-01-29T08:21:20;102086.41;;;5.29;100.00
55916;BME280;41826;53.246;-6.670;2023-01-29T08:23:45;102079.47;;;5.29;100.00
55916;BME280;41826;53.246;-6.670;2023-01-29T08:26:11;102084.03;;;5.07;100.00
55916;BME280;41826;53.246;-6.670;2023-01-29T08:28:36;102088.06;;;4.95;100.00
55916;BME280;41826;53.246;-6.670;2023-01-29T08:31:03;102083.41;;;5.02;100.00
55916;BME280;41826;53.246;-6.670;2023-01-29T08:33:28;102088.06;;;4.95;100.00
55916;BME280;41826;53.246;-6.670;2023-01-29T08:35:54;102083.16;;;5.06;100.00
55916;BME280;41826;53.246;-6.670;2023-01-29T08:38:19;102089.16;;;5.08;100.00
55916;BME280;41826;53.246;-6.670;2023-01-29T08:40:45;102094.13;;;5.13;100.00
55916;BME280;41826;53.246;-6.670;2023-01-29T08:43:12;102093.94;;;4.98;100.00
55916;BME280;41826;53.246;-6.670;2023-01-29T08:45:42;102094.50;;;5.05;100.00
55916;BME280;41826;53.246;-6.670;2023-01-29T08:48:08;102096.78;;;4.94;100.00
55916;BME280;41826;53.246;-6.670;2023-01-29T08:50:34;102086.13;;;4.98;100.00
55916;BME280;41826;53.246;-6.670;2023-01-29T08:53:01;102077.34;;;5.01;100.00
55916;BME280;41826;53.246;-6.670;2023-01-29T08:55:27;102080.25;;;4.95;100.00
55916;BME280;41826;53.246;-6.670;2023-01-29T08:57:53;102085.91;;;5.03;100.00
55916;BME280;41826;53.246;-6.670;2023-01-29T09:00:19;102068.00;;;4.97;100.00
55916;BME280;41826;53.246;-6.670;2023-01-29T09:02:45;102066.03;;;5.02;100.00
55916;BME280;41826;53.246;-6.670;2023-01-29T09:05:10;102058.03;;;5.24;100.00
55916;BME280;41826;53.246;-6.670;2023-01-29T09:07:35;102053.03;;;5.19;100.00
55916;BME280;41826;53.246;-6.670;2023-01-29T09:10:01;102059.53;;;5.28;100.00
55916;BME280;41826;53.246;-6.670;2023-01-29T09:12:26;102063.13;;;5.26;100.00
55916;BME280;41826;53.246;-6.670;2023-01-29T09:14:52;102063.38;;;5.38;100.00
55916;BME280;41826;53.246;-6.670;2023-01-29T09:17:17;102070.72;;;5.13;100.00
55916;BME280;41826;53.246;-6.670;2023-01-29T09:19:42;102070.31;;;5.03;100.00
55916;BME280;41826;53.246;-6.670;2023-01-29T09:22:08;102064.34;;;5.18;100.00
55916;BME280;41826;53.246;-6.670;2023-01-29T09:24:33;102059.97;;;5.19;100.00
55916;BME280;41826;53.246;-6.670;2023-01-29T09:27:00;102063.06;;;5.27;100.00
55916;BME280;41826;53.246;-6.670;2023-01-29T09:29:25;102072.56;;;5.28;100.00
55916;BME280;41826;53.246;-6.670;2023-01-29T09:31:50;102084.00;;;5.43;100.00
55916;BME280;41826;53.246;-6.670;2023-01-29T09:34:16;102076.94;;;5.28;100.00
55916;BME280;41826;53.246;-6.670;2023-01-29T09:36:42;102071.78;;;5.26;100.00
55916;BME280;41826;53.246;-6.670;2023-01-29T09:39:07;102069.13;;;5.28;100.00
55916;BME280;41826;53.246;-6.670;2023-01-29T09:46:52;102054.19;;;5.31;100.00
55916;BME280;41826;53.246;-6.670;2023-01-29T09:49:30;102059.63;;;5.44;100.00
55916;BME280;41826;53.246;-6.670;2023-01-29T09:52:19;102048.97;;;5.49;100.00
55916;BME280;41826;53.246;-6.670;2023-01-29T09:55:21;102052.44;;;5.32;100.00
55916;BME280;41826;53.246;-6.670;2023-01-29T09:57:51;102057.09;;;5.42;100.00
55916;BME280;41826;53.246;-6.670;2023-01-29T10:19:12;102018.09;;;5.41;100.00
55916;BME280;41826;53.246;-6.670;2023-01-29T10:21:46;102016.94;;;5.47;100.00
55916;BME280;41826;53.246;-6.670;2023-01-29T10:24:37;102011.69;;;5.48;100.00
55916;BME280;41826;53.246;-6.670;2023-01-29T10:27:16;102002.41;;;5.60;100.00
55916;BME280;41826;53.246;-6.670;2023-01-29T10:29:43;101999.03;;;5.40;100.00
55916;BME280;41826;53.246;-6.670;2023-01-29T10:32:14;101990.66;;;5.69;100.00
55916;BME280;41826;53.246;-6.670;2023-01-29T10:34:45;101983.00;;;5.65;100.00
55916;BME280;41826;53.246;-6.670;2023-01-29T10:37:18;101985.06;;;5.59;100.00
55916;BME280;41826;53.246;-6.670;2023-01-29T10:39:45;101976.69;;;5.70;100.00
55916;BME280;41826;53.246;-6.670;2023-01-29T10:42:25;101973.47;;;5.64;100.00
55916;BME280;41826;53.246;-6.670;2023-01-29T10:45:14;101964.44;;;5.72;100.00
55916;BME280;41826;53.246;-6.670;2023-01-29T10:50:47;101967.97;;;5.71;100.00
55916;BME280;41826;53.246;-6.670;2023-01-29T10:56:05;101955.72;;;5.73;100.00
55916;BME280;41826;53.246;-6.670;2023-01-29T10:58:44;101957.31;;;5.75;100.00
55916;BME280;41826;53.246;-6.670;2023-01-29T11:01:13;101947.97;;;5.87;100.00
55916;BME280;41826;53.246;-6.670;2023-01-29T11:03:38;101959.91;;;5.75;100.00
55916;BME280;41826;53.246;-6.670;2023-01-29T11:14:11;101944.31;;;5.91;100.00
55916;BME280;41826;53.246;-6.670;2023-01-29T11:16:44;101938.31;;;5.89;100.00
55916;BME280;41826;53.246;-6.670;2023-01-29T11:19:11;101935.44;;;5.95;100.00
55916;BME280;41826;53.246;-6.670;2023-01-29T11:21:57;101932.34;;;5.87;100.00
55916;BME280;41826;53.246;-6.670;2023-01-29T11:24:23;101925.31;;;6.05;100.00
55916;BME280;41826;53.246;-6.670;2023-01-29T11:26:49;101919.22;;;6.06;100.00
55916;BME280;41826;53.246;-6.670;2023-01-29T11:29:42;101917.53;;;6.21;100.00
55916;BME280;41826;53.246;-6.670;2023-01-29T11:37:21;101915.69;;;6.23;100.00
55916;BME280;41826;53.246;-6.670;2023-01-29T11:39:46;101905.25;;;6.23;100.00
55916;BME280;41826;53.246;-6.670;2023-01-29T11:42:20;101896.31;;;6.27;100.00
55916;BME280;41826;53.246;-6.670;2023-01-29T11:44:46;101897.72;;;6.33;100.00
55916;BME280;41826;53.246;-6.670;2023-01-29T11:47:20;101892.50;;;6.33;100.00
55916;BME280;41826;53.246;-6.670;2023-01-29T11:49:52;101891.16;;;6.41;100.00
55916;BME280;41826;53.246;-6.670;2023-01-29T11:52:21;101887.81;;;6.39;100.00
55916;BME280;41826;53.246;-6.670;2023-01-29T11:59:54;101858.16;;;6.56;100.00
55916;BME280;41826;53.246;-6.670;2023-01-29T12:02:41;101863.66;;;6.66;100.00
55916;BME280;41826;53.246;-6.670;2023-01-29T12:05:17;101852.78;;;6.73;100.00
55916;BME280;41826;53.246;-6.670;2023-01-29T12:07:45;101844.09;;;6.73;100.00
55916;BME280;41826;53.246;-6.670;2023-01-29T12:15:37;101825.03;;;7.01;100.00
55916;BME280;41826;53.246;-6.670;2023-01-29T12:21:01;101807.50;;;7.03;100.00
55916;BME280;41826;53.246;-6.670;2023-01-29T12:23:31;101801.06;;;7.09;100.00
55916;BME280;41826;53.246;-6.670;2023-01-29T12:26:05;101792.88;;;7.15;100.00
55916;BME280;41826;53.246;-6.670;2023-01-29T12:31:42;101781.47;;;7.16;100.00
55916;BME280;41826;53.246;-6.670;2023-01-29T12:34:18;101776.44;;;7.27;100.00
55916;BME280;41826;53.246;-6.670;2023-01-29T12:37:03;101775.13;;;7.34;100.00
55916;BME280;41826;53.246;-6.670;2023-01-29T12:39:30;101766.25;;;7.37;100.00
55916;BME280;41826;53.246;-6.670;2023-01-29T12:41:59;101769.44;;;7.42;100.00
55916;BME280;41826;53.246;-6.670;2023-01-29T12:44:40;101766.88;;;7.55;100.00
55916;BME280;41826;53.246;-6.670;2023-01-29T12:49:57;101759.72;;;7.71;100.00
55916;BME280;41826;53.246;-6.670;2023-01-29T12:55:02;101767.50;;;7.86;100.00
55916;BME280;41826;53.246;-6.670;2023-01-29T13:00:18;101759.81;;;7.97;100.00
55916;BME280;41826;53.246;-6.670;2023-01-29T13:05:33;101739.78;;;8.10;100.00
55916;BME280;41826;53.246;-6.670;2023-01-29T13:08:09;101726.47;;;8.13;100.00
55916;BME280;41826;53.246;-6.670;2023-01-29T13:10:42;101720.22;;;8.16;100.00
55916;BME280;41826;53.246;-6.670;2023-01-29T13:15:43;101719.69;;;8.23;100.00
55916;BME280;41826;53.246;-6.670;2023-01-29T13:21:00;101721.59;;;8.34;100.00
55916;BME280;41826;53.246;-6.670;2023-01-29T13:23:44;101722.88;;;8.41;100.00
55916;BME280;41826;53.246;-6.670;2023-01-29T13:26:11;101719.22;;;8.44;100.00
55916;BME280;41826;53.246;-6.670;2023-01-29T13:28:38;101719.97;;;8.46;100.00
55916;BME280;41826;53.246;-6.670;2023-01-29T13:31:20;101706.13;;;8.44;100.00
55916;BME280;41826;53.246;-6.670;2023-01-29T13:33:53;101703.41;;;8.45;100.00
55916;BME280;41826;53.246;-6.670;2023-01-29T13:36:24;101711.75;;;8.51;100.00
55916;BME280;41826;53.246;-6.670;2023-01-29T13:38:59;101704.34;;;8.57;100.00
55916;BME280;41826;53.246;-6.670;2023-01-29T13:41:37;101709.47;;;8.59;100.00
55916;BME280;41826;53.246;-6.670;2023-01-29T13:44:05;101706.56;;;8.63;100.00
55916;BME280;41826;53.246;-6.670;2023-01-29T13:46:32;101705.69;;;8.63;100.00
55916;BME280;41826;53.246;-6.670;2023-01-29T13:48:58;101702.16;;;8.64;100.00
55916;BME280;41826;53.246;-6.670;2023-01-29T13:51:33;101699.09;;;8.70;100.00
55916;BME280;41826;53.246;-6.670;2023-01-29T13:54:06;101703.41;;;8.71;100.00
55916;BME280;41826;53.246;-6.670;2023-01-29T13:59:00;101695.44;;;8.73;100.00
55916;BME280;41826;53.246;-6.670;2023-01-29T14:06:54;101707.38;;;8.77;100.00
55916;BME280;41826;53.246;-6.670;2023-01-29T14:14:50;101706.94;;;8.83;100.00
55916;BME280;41826;53.246;-6.670;2023-01-29T14:17:16;101696.97;;;8.88;100.00
55916;BME280;41826;53.246;-6.670;2023-01-29T14:19:50;101693.06;;;8.94;100.00
55916;BME280;41826;53.246;-6.670;2023-01-29T14:22:23;101676.84;;;8.88;100.00
55916;BME280;41826;53.246;-6.670;2023-01-29T14:25:15;101675.19;;;8.87;100.00
55916;BME280;41826;53.246;-6.670;2023-01-29T14:27:46;101652.03;;;8.94;100.00
55916;BME280;41826;53.246;-6.670;2023-01-29T14:30:15;101667.25;;;8.89;100.00
55916;BME280;41826;53.246;-6.670;2023-01-29T14:32:45;101662.50;;;8.94;100.00
55916;BME280;41826;53.246;-6.670;2023-01-29T14:35:23;101665.63;;;8.99;100.00
55916;BME280;41826;53.246;-6.670;2023-01-29T14:37:52;101675.56;;;9.07;100.00
55916;BME280;41826;53.246;-6.670;2023-01-29T14:58:18;101773.22;;;9.09;100.00
55916;BME280;41826;53.246;-6.670;2023-01-29T15:00:50;101784.41;;;9.11;100.00
55916;BME280;41826;53.246;-6.670;2023-01-29T15:06:05;101822.34;;;9.18;100.00
55916;BME280;41826;53.246;-6.670;2023-01-29T15:08:37;101828.41;;;9.19;100.00
55916;BME280;41826;53.246;-6.670;2023-01-29T15:11:13;101802.88;;;9.09;100.00
55916;BME280;41826;53.246;-6.670;2023-01-29T15:17:00;101799.06;;;9.14;100.00
55916;BME280;41826;53.246;-6.670;2023-01-29T15:19:34;101802.03;;;9.22;100.00
55916;BME280;41826;53.246;-6.670;2023-01-29T15:22:14;101812.50;;;9.22;100.00
55916;BME280;41826;53.246;-6.670;2023-01-29T15:24:42;101824.94;;;9.31;100.00
55916;BME280;41826;53.246;-6.670;2023-01-29T15:27:16;101826.63;;;9.32;100.00
55916;BME280;41826;53.246;-6.670;2023-01-29T15:29:47;101829.66;;;9.26;100.00
55916;BME280;41826;53.246;-6.670;2023-01-29T15:32:26;101851.88;;;9.33;100.00
55916;BME280;41826;53.246;-6.670;2023-01-29T15:34:56;101873.25;;;9.40;100.00
55916;BME280;41826;53.246;-6.670;2023-01-29T15:37:32;101873.06;;;9.30;100.00
55916;BME280;41826;53.246;-6.670;2023-01-29T15:39:59;101858.78;;;9.34;100.00
55916;BME280;41826;53.246;-6.670;2023-01-29T15:42:27;101866.44;;;9.37;100.00
55916;BME280;41826;53.246;-6.670;2023-01-29T15:44:53;101857.94;;;9.33;100.00